Alguazas, Spain
Current Conditions -  °F | °C
As of 7:00 PM on Friday 31 Oct 2014 (Local Time) from LELC Reporting Station
Few Clouds Few Clouds  
Wind Chill: 20°   Ceiling: Unl
Heat Index: 20°   Visibility: 6mi
Dew Point: 16°   Wind: 3mph
Humidity: 78%   Direction: 80°E
Pressure: 30.21"   Gusts: NA
Location:  38.05°N, 1.25°W
Report Text: LELC 311800Z 08003KT 030V110 9999 FEW015 20/16 Q1023 NOSIG
Loading
Personal Weather Stations






























Interactive Weather Map
Tropical Storm Tracking
New forecast layout! Learn more

10-Day Weather Forecast

Advertisements
Track Severe Weather on mobile